createdAt,value
2022-12-25T00:00:49.842Z,1014.33
2022-12-25T00:01:49.793Z,1014.27
2022-12-25T00:02:49.851Z,1014.31
2022-12-25T00:03:49.907Z,1014.33
2022-12-25T00:04:49.801Z,1014.26
2022-12-25T00:05:49.766Z,1014.27
2022-12-25T00:06:49.754Z,1014.28
2022-12-25T00:07:49.736Z,1014.26
2022-12-25T00:08:49.711Z,1014.26
2022-12-25T00:09:49.914Z,1014.25
2022-12-25T00:10:49.726Z,1014.29
2022-12-25T00:11:49.692Z,1014.30
2022-12-25T00:12:49.693Z,1014.29
2022-12-25T00:13:49.656Z,1014.31
2022-12-25T00:14:49.664Z,1014.37
2022-12-25T00:15:49.710Z,1014.32
2022-12-25T00:16:49.700Z,1014.30
2022-12-25T00:17:49.597Z,1014.31
2022-12-25T00:18:49.590Z,1014.31
2022-12-25T00:19:49.589Z,1014.29
2022-12-25T00:20:49.582Z,1014.26
2022-12-25T00:21:49.700Z,1014.26
2022-12-25T00:22:49.541Z,1014.25
2022-12-25T00:23:49.519Z,1014.29
2022-12-25T00:24:49.538Z,1014.23
2022-12-25T00:25:59.627Z,1014.23
2022-12-25T00:26:49.513Z,1014.19
2022-12-25T00:27:49.571Z,1014.17
2022-12-25T00:28:49.544Z,1014.18
2022-12-25T00:29:49.466Z,1014.16
2022-12-25T00:30:49.472Z,1014.20
2022-12-25T00:31:49.486Z,1014.21
2022-12-25T00:32:49.428Z,1014.24
2022-12-25T00:33:49.449Z,1014.20
2022-12-25T00:34:49.398Z,1014.18
2022-12-25T00:35:49.396Z,1014.21
2022-12-25T00:36:49.393Z,1014.18
2022-12-25T00:37:49.349Z,1014.14
2022-12-25T00:38:49.382Z,1014.15
2022-12-25T00:39:49.353Z,1014.13
2022-12-25T00:40:49.340Z,1014.15
2022-12-25T00:41:49.304Z,1014.12
2022-12-25T00:42:49.366Z,1014.08
2022-12-25T00:43:49.308Z,1014.10
2022-12-25T00:44:49.346Z,1014.12
2022-12-25T00:45:49.299Z,1014.12
2022-12-25T00:46:49.346Z,1014.11
2022-12-25T00:47:49.226Z,1014.10
2022-12-25T00:48:49.230Z,1014.07
2022-12-25T00:49:49.236Z,1014.07
2022-12-25T00:50:49.261Z,1014.06
2022-12-25T00:51:49.180Z,1014.04
2022-12-25T00:52:49.183Z,1014.02
2022-12-25T00:53:49.167Z,1014.07
2022-12-25T00:54:49.140Z,1014.06
2022-12-25T00:55:49.120Z,1014.09
2022-12-25T00:56:49.113Z,1014.09
2022-12-25T00:57:49.117Z,1014.09
2022-12-25T00:58:49.127Z,1014.13
2022-12-25T00:59:49.059Z,1014.09
2022-12-25T01:00:49.082Z,1014.10
2022-12-25T01:01:49.203Z,1014.05
2022-12-25T01:02:49.138Z,1014.08
2022-12-25T01:03:49.091Z,1014.04
2022-12-25T01:04:49.058Z,1014.03
2022-12-25T01:05:49.027Z,1014.01
2022-12-25T01:06:48.994Z,1014.02
2022-12-25T01:07:49.025Z,1014.05
2022-12-25T01:08:48.983Z,1014.02
2022-12-25T01:09:48.936Z,1014.00
2022-12-25T01:10:48.927Z,1014.00
2022-12-25T01:11:48.912Z,1013.97
2022-12-25T01:12:48.922Z,1013.96
2022-12-25T01:13:48.933Z,1013.95
2022-12-25T01:14:48.861Z,1013.98
2022-12-25T01:15:48.836Z,1013.99
2022-12-25T01:16:48.920Z,1014.01
2022-12-25T01:17:48.852Z,1013.99
2022-12-25T01:18:48.829Z,1013.97
2022-12-25T01:19:48.838Z,1013.94
2022-12-25T01:20:48.889Z,1013.98
2022-12-25T01:21:48.801Z,1014.03
2022-12-25T01:22:48.855Z,1014.05
2022-12-25T01:23:48.759Z,1014.06
2022-12-25T01:24:48.759Z,1014.05
2022-12-25T01:25:48.745Z,1014.02
2022-12-25T01:26:48.795Z,1014.00
2022-12-25T01:27:48.711Z,1013.96
2022-12-25T01:28:48.707Z,1013.97
2022-12-25T01:29:48.681Z,1013.97
2022-12-25T01:30:48.720Z,1013.99
2022-12-25T01:31:48.690Z,1013.99
2022-12-25T01:32:48.648Z,1013.98
2022-12-25T01:33:48.629Z,1014.00
2022-12-25T01:34:53.854Z,1013.98
2022-12-25T01:35:49.583Z,1013.94
2022-12-25T01:36:48.616Z,1013.93
2022-12-25T01:37:48.552Z,1013.87
2022-12-25T01:38:48.588Z,1013.85
2022-12-25T01:39:48.593Z,1013.86
2022-12-25T01:40:48.519Z,1013.85
2022-12-25T01:41:48.505Z,1013.81
2022-12-25T01:42:48.522Z,1013.81
2022-12-25T01:43:48.502Z,1013.84
2022-12-25T01:44:48.499Z,1013.84
2022-12-25T01:45:48.496Z,1013.86
2022-12-25T01:46:48.438Z,1013.82
2022-12-25T01:47:48.450Z,1013.80
2022-12-25T01:48:48.439Z,1013.76
2022-12-25T01:49:48.415Z,1013.76
2022-12-25T01:50:48.444Z,1013.76
2022-12-25T01:51:48.393Z,1013.71
2022-12-25T01:52:48.399Z,1013.82
2022-12-25T01:53:48.347Z,1013.81
2022-12-25T01:54:48.325Z,1013.81
2022-12-25T01:55:48.343Z,1013.77
2022-12-25T01:56:48.320Z,1013.85
2022-12-25T01:57:48.382Z,1013.85
2022-12-25T01:58:48.390Z,1013.91
2022-12-25T01:59:48.283Z,1013.94
2022-12-25T02:00:48.404Z,1013.95
2022-12-25T02:01:48.389Z,1013.96
2022-12-25T02:02:48.335Z,1014.03
2022-12-25T02:03:48.239Z,1014.02
2022-12-25T02:04:48.263Z,1014.04
2022-12-25T02:05:48.230Z,1014.01
2022-12-25T02:06:48.180Z,1014.05
2022-12-25T02:07:48.164Z,1014.05
2022-12-25T02:08:48.152Z,1014.06
2022-12-25T02:09:48.111Z,1014.03
2022-12-25T02:10:48.159Z,1014.06
2022-12-25T02:11:48.185Z,1014.07
2022-12-25T02:12:48.127Z,1014.09
2022-12-25T02:13:48.088Z,1014.11
2022-12-25T02:14:48.083Z,1014.12
2022-12-25T02:15:48.059Z,1014.10
2022-12-25T02:16:57.879Z,1014.15
2022-12-25T02:17:49.015Z,1014.15
2022-12-25T02:18:48.038Z,1014.15
2022-12-25T02:19:48.044Z,1014.20
2022-12-25T02:20:48.039Z,1014.19
2022-12-25T02:21:48.035Z,1014.16
2022-12-25T02:22:47.951Z,1014.18
2022-12-25T02:23:47.925Z,1014.14
2022-12-25T02:24:47.955Z,1014.12
2022-12-25T02:25:47.912Z,1014.15
2022-12-25T02:26:47.937Z,1014.17
2022-12-25T02:27:47.887Z,1014.15
2022-12-25T02:28:47.921Z,1014.22
2022-12-25T02:29:47.877Z,1014.17
2022-12-25T02:30:47.852Z,1014.16
2022-12-25T02:31:47.886Z,1014.17
2022-12-25T02:32:47.855Z,1014.14
2022-12-25T02:33:47.824Z,1014.17
2022-12-25T02:34:47.816Z,1014.21
2022-12-25T02:35:47.810Z,1014.21
2022-12-25T02:36:47.782Z,1014.26
2022-12-25T02:37:47.783Z,1014.23
2022-12-25T02:38:47.770Z,1014.19
2022-12-25T02:39:47.723Z,1014.19
2022-12-25T02:40:47.703Z,1014.17
2022-12-25T02:41:47.676Z,1014.17
2022-12-25T02:42:47.764Z,1014.17
2022-12-25T02:43:47.650Z,1014.18
2022-12-25T02:44:47.679Z,1014.19
2022-12-25T02:45:47.780Z,1014.15
2022-12-25T02:46:47.625Z,1014.17
2022-12-25T02:47:47.632Z,1014.13
2022-12-25T02:48:47.615Z,1014.15
2022-12-25T02:49:47.570Z,1014.11
2022-12-25T02:50:47.583Z,1014.08
2022-12-25T02:51:47.571Z,1014.05
2022-12-25T02:52:56.061Z,1014.07
2022-12-25T02:53:47.539Z,1014.08
2022-12-25T02:54:47.505Z,1014.12
2022-12-25T02:55:47.519Z,1014.13
2022-12-25T02:56:47.467Z,1014.16
2022-12-25T02:57:47.461Z,1014.17
2022-12-25T02:58:47.460Z,1014.17
2022-12-25T02:59:47.437Z,1014.17
2022-12-25T03:00:47.521Z,1014.16
2022-12-25T03:01:47.473Z,1014.17
2022-12-25T03:02:47.396Z,1014.25
2022-12-25T03:03:47.448Z,1014.21
2022-12-25T03:04:47.390Z,1014.21
2022-12-25T03:05:47.374Z,1014.22
2022-12-25T03:06:47.348Z,1014.23
2022-12-25T03:07:47.340Z,1014.20
2022-12-25T03:08:47.343Z,1014.20
2022-12-25T03:09:55.833Z,1014.20
2022-12-25T03:10:55.799Z,1014.16
2022-12-25T03:11:47.275Z,1014.14
2022-12-25T03:12:47.248Z,1014.11
2022-12-25T03:13:47.251Z,1014.07
2022-12-25T03:14:47.234Z,1014.07
2022-12-25T03:15:47.224Z,1014.10
2022-12-25T03:16:47.293Z,1014.06
2022-12-25T03:17:47.238Z,1014.05
2022-12-25T03:18:47.235Z,1014.01
2022-12-25T03:19:47.166Z,1013.98
2022-12-25T03:20:47.161Z,1014.04
2022-12-25T03:21:47.142Z,1014.00
2022-12-25T03:22:47.116Z,1014.00
2022-12-25T03:23:47.137Z,1013.95
2022-12-25T03:24:47.087Z,1013.96
2022-12-25T03:25:47.075Z,1013.99
2022-12-25T03:26:47.106Z,1013.95
2022-12-25T03:27:47.049Z,1013.94
2022-12-25T03:28:47.046Z,1013.89
2022-12-25T03:29:47.065Z,1013.89
2022-12-25T03:30:47.033Z,1013.84
2022-12-25T03:31:46.996Z,1013.85
2022-12-25T03:32:46.986Z,1013.84
2022-12-25T03:33:47.038Z,1013.80
2022-12-25T03:34:46.950Z,1013.77
2022-12-25T03:35:46.951Z,1013.74
2022-12-25T03:36:46.928Z,1013.72
2022-12-25T03:37:46.920Z,1013.72
2022-12-25T03:38:46.917Z,1013.76
2022-12-25T03:39:46.918Z,1013.71
2022-12-25T03:40:46.868Z,1013.72
2022-12-25T03:41:46.861Z,1013.71
2022-12-25T03:42:46.849Z,1013.67
2022-12-25T03:43:46.850Z,1013.60
2022-12-25T03:44:46.818Z,1013.55
2022-12-25T03:45:54.508Z,1013.53
2022-12-25T03:46:46.859Z,1013.54
2022-12-25T03:47:46.852Z,1013.54
2022-12-25T03:48:46.787Z,1013.58
2022-12-25T03:49:46.782Z,1013.61
2022-12-25T03:50:46.760Z,1013.67
2022-12-25T03:51:46.778Z,1013.66
2022-12-25T03:52:46.751Z,1013.61
2022-12-25T03:53:46.722Z,1013.57
2022-12-25T03:54:46.711Z,1013.50
2022-12-25T03:55:46.699Z,1013.47
2022-12-25T03:56:46.688Z,1013.42
2022-12-25T03:57:46.651Z,1013.34
2022-12-25T03:58:46.638Z,1013.30
2022-12-25T03:59:46.609Z,1013.25
2022-12-25T04:00:46.593Z,1013.19
2022-12-25T04:01:55.494Z,1013.20
2022-12-25T04:02:46.769Z,1013.23
2022-12-25T04:03:46.630Z,1013.19
2022-12-25T04:04:46.724Z,1013.27
2022-12-25T04:05:46.533Z,1013.24
2022-12-25T04:06:46.529Z,1013.30
2022-12-25T04:07:46.546Z,1013.32
2022-12-25T04:08:46.540Z,1013.41
2022-12-25T04:09:46.503Z,1013.41
2022-12-25T04:10:46.486Z,1013.40
2022-12-25T04:11:46.504Z,1013.43
2022-12-25T04:12:46.442Z,1013.40
2022-12-25T04:13:46.446Z,1013.37
2022-12-25T04:14:46.494Z,1013.35
2022-12-25T04:15:46.459Z,1013.38
2022-12-25T04:16:46.412Z,1013.39
2022-12-25T04:17:46.422Z,1013.41
2022-12-25T04:18:46.376Z,1013.46
2022-12-25T04:19:46.363Z,1013.51
2022-12-25T04:20:46.363Z,1013.53
2022-12-25T04:21:46.331Z,1013.52
2022-12-25T04:22:46.310Z,1013.54
2022-12-25T04:23:46.314Z,1013.52
2022-12-25T04:24:46.307Z,1013.50
2022-12-25T04:25:46.285Z,1013.46
2022-12-25T04:26:46.301Z,1013.45
2022-12-25T04:27:46.243Z,1013.45
2022-12-25T04:28:46.230Z,1013.38
2022-12-25T04:29:46.245Z,1013.37
2022-12-25T04:30:46.282Z,1013.38
2022-12-25T04:31:46.207Z,1013.35
2022-12-25T04:32:46.224Z,1013.38
2022-12-25T04:33:46.180Z,1013.35
2022-12-25T04:34:46.166Z,1013.38
2022-12-25T04:35:46.157Z,1013.33
2022-12-25T04:36:46.159Z,1013.34
2022-12-25T04:37:46.145Z,1013.34
2022-12-25T04:38:46.141Z,1013.39
2022-12-25T04:39:46.098Z,1013.37
2022-12-25T04:40:46.081Z,1013.36
2022-12-25T04:41:46.078Z,1013.38
2022-12-25T04:42:46.075Z,1013.36
2022-12-25T04:43:46.029Z,1013.38
2022-12-25T04:44:46.024Z,1013.38
2022-12-25T04:45:46.012Z,1013.37
2022-12-25T04:46:46.009Z,1013.39
2022-12-25T04:47:45.998Z,1013.41
2022-12-25T04:48:45.982Z,1013.38
2022-12-25T04:49:45.939Z,1013.33
2022-12-25T04:50:45.935Z,1013.30
2022-12-25T04:51:45.962Z,1013.24
2022-12-25T04:52:45.991Z,1013.22
2022-12-25T04:53:45.919Z,1013.22
2022-12-25T04:54:45.901Z,1013.21
2022-12-25T04:55:45.886Z,1013.24
2022-12-25T04:56:46.257Z,1013.23
2022-12-25T04:57:45.882Z,1013.21
2022-12-25T04:58:45.911Z,1013.22
2022-12-25T04:59:45.840Z,1013.21
2022-12-25T05:00:45.818Z,1013.19
2022-12-25T05:01:45.904Z,1013.18
2022-12-25T05:02:46.005Z,1013.18
2022-12-25T05:03:45.844Z,1013.21
2022-12-25T05:04:45.809Z,1013.22
2022-12-25T05:05:45.741Z,1013.23
2022-12-25T05:06:45.801Z,1013.24
2022-12-25T05:07:45.718Z,1013.21
2022-12-25T05:08:45.725Z,1013.25
2022-12-25T05:09:45.705Z,1013.24
2022-12-25T05:10:45.686Z,1013.24
2022-12-25T05:11:45.664Z,1013.26
2022-12-25T05:12:45.671Z,1013.25
2022-12-25T05:13:45.677Z,1013.23
2022-12-25T05:14:45.625Z,1013.18
2022-12-25T05:15:45.669Z,1013.18
2022-12-25T05:16:45.605Z,1013.22
2022-12-25T05:17:45.656Z,1013.22
2022-12-25T05:18:45.564Z,1013.20
2022-12-25T05:19:45.561Z,1013.19
2022-12-25T05:20:45.589Z,1013.19
2022-12-25T05:21:45.519Z,1013.24
2022-12-25T05:22:45.533Z,1013.22
2022-12-25T05:23:45.547Z,1013.24
2022-12-25T05:24:45.473Z,1013.25
2022-12-25T05:25:45.481Z,1013.22
2022-12-25T05:26:45.520Z,1013.20
2022-12-25T05:27:52.010Z,1013.19
2022-12-25T05:28:46.446Z,1013.19
2022-12-25T05:29:45.435Z,1013.21
2022-12-25T05:30:45.434Z,1013.21
2022-12-25T05:31:45.427Z,1013.22
2022-12-25T05:32:45.391Z,1013.21
2022-12-25T05:33:45.428Z,1013.22
2022-12-25T05:34:45.353Z,1013.18
2022-12-25T05:35:45.326Z,1013.16
2022-12-25T05:36:45.388Z,1013.14
2022-12-25T05:37:45.296Z,1013.11
2022-12-25T05:38:45.315Z,1013.10
2022-12-25T05:39:45.294Z,1013.08
2022-12-25T05:40:45.384Z,1013.04
2022-12-25T05:41:45.257Z,1013.07
2022-12-25T05:42:45.244Z,1013.09
2022-12-25T05:43:45.241Z,1013.08
2022-12-25T05:44:45.219Z,1013.09
2022-12-25T05:45:45.217Z,1013.07
2022-12-25T05:46:45.219Z,1013.03
2022-12-25T05:47:45.168Z,1013.04
2022-12-25T05:48:45.167Z,1013.05
2022-12-25T05:49:45.165Z,1013.03
2022-12-25T05:50:45.160Z,1013.02
2022-12-25T05:51:45.105Z,1012.97
2022-12-25T05:52:45.097Z,1012.95
2022-12-25T05:53:45.093Z,1012.96
2022-12-25T05:54:45.080Z,1012.98
2022-12-25T05:55:45.043Z,1013.02
2022-12-25T05:56:45.063Z,1013.00
2022-12-25T05:57:45.034Z,1013.04
2022-12-25T05:58:45.035Z,1013.06
2022-12-25T05:59:45.000Z,1013.11
2022-12-25T06:00:45.028Z,1013.05
2022-12-25T06:01:45.121Z,1013.02
2022-12-25T06:02:45.227Z,1013.02
2022-12-25T06:03:45.033Z,1013.04
2022-12-25T06:04:44.951Z,1013.01
2022-12-25T06:05:44.935Z,1012.98
2022-12-25T06:06:44.916Z,1013.02
2022-12-25T06:07:44.903Z,1013.02
2022-12-25T06:08:44.894Z,1012.95
2022-12-25T06:09:44.861Z,1012.83
2022-12-25T06:10:44.880Z,1012.79
2022-12-25T06:11:44.868Z,1012.75
2022-12-25T06:12:44.864Z,1012.72
2022-12-25T06:13:44.831Z,1012.75
2022-12-25T06:14:44.780Z,1012.73
2022-12-25T06:15:44.796Z,1012.81
2022-12-25T06:16:44.830Z,1012.80
2022-12-25T06:17:44.753Z,1012.77
2022-12-25T06:18:44.762Z,1012.71
2022-12-25T06:19:44.750Z,1012.80
2022-12-25T06:20:44.733Z,1012.68
2022-12-25T06:21:44.694Z,1012.72
2022-12-25T06:22:44.681Z,1012.63
2022-12-25T06:23:44.823Z,1012.63
2022-12-25T06:24:44.672Z,1012.61
2022-12-25T06:25:44.660Z,1012.61
2022-12-25T06:26:44.647Z,1012.59
2022-12-25T06:27:44.721Z,1012.60
2022-12-25T06:28:44.609Z,1012.60
2022-12-25T06:29:44.646Z,1012.61
2022-12-25T06:30:44.583Z,1012.64
2022-12-25T06:31:44.657Z,1012.64
2022-12-25T06:32:44.594Z,1012.68
2022-12-25T06:33:44.548Z,1012.67
2022-12-25T06:34:44.528Z,1012.65
2022-12-25T06:35:44.521Z,1012.62
2022-12-25T06:36:44.517Z,1012.58
2022-12-25T06:37:44.487Z,1012.52
2022-12-25T06:38:44.456Z,1012.56
2022-12-25T06:39:44.461Z,1012.61
2022-12-25T06:40:44.505Z,1012.61
2022-12-25T06:41:44.429Z,1012.59
2022-12-25T06:42:44.410Z,1012.58
2022-12-25T06:43:44.482Z,1012.53
2022-12-25T06:44:44.384Z,1012.49
2022-12-25T06:45:44.548Z,1012.46
2022-12-25T06:46:44.383Z,1012.41
2022-12-25T06:47:44.332Z,1012.41
2022-12-25T06:48:44.369Z,1012.41
2022-12-25T06:49:44.325Z,1012.47
2022-12-25T06:50:44.294Z,1012.45
2022-12-25T06:51:44.315Z,1012.43
2022-12-25T06:52:44.263Z,1012.41
2022-12-25T06:53:44.243Z,1012.36
2022-12-25T06:54:44.275Z,1012.35
2022-12-25T06:55:44.229Z,1012.35
2022-12-25T06:56:44.230Z,1012.29
2022-12-25T06:57:44.215Z,1012.30
2022-12-25T06:58:44.228Z,1012.29
2022-12-25T06:59:46.386Z,1012.27
2022-12-25T07:00:44.191Z,1012.31
2022-12-25T07:01:44.336Z,1012.32
2022-12-25T07:02:44.283Z,1012.35
2022-12-25T07:03:44.171Z,1012.34
2022-12-25T07:04:44.109Z,1012.39
2022-12-25T07:05:44.113Z,1012.38
2022-12-25T07:06:44.110Z,1012.37
2022-12-25T07:07:44.115Z,1012.35
2022-12-25T07:08:44.058Z,1012.34
2022-12-25T07:09:44.053Z,1012.32
2022-12-25T07:10:44.034Z,1012.27
2022-12-25T07:11:44.012Z,1012.26
2022-12-25T07:12:44.003Z,1012.24
2022-12-25T07:13:43.984Z,1012.16
2022-12-25T07:14:44.012Z,1012.12
2022-12-25T07:15:43.945Z,1012.07
2022-12-25T07:16:44.019Z,1012.02
2022-12-25T07:17:43.922Z,1012.01
2022-12-25T07:18:43.916Z,1011.94
2022-12-25T07:19:45.439Z,1011.97
2022-12-25T07:20:43.886Z,1011.96
2022-12-25T07:21:43.869Z,1011.88
2022-12-25T07:22:43.926Z,1011.84
2022-12-25T07:23:43.845Z,1011.87
2022-12-25T07:24:43.852Z,1011.80
2022-12-25T07:25:43.839Z,1011.80
2022-12-25T07:26:43.830Z,1011.78
2022-12-25T07:27:43.777Z,1011.79
2022-12-25T07:28:43.797Z,1011.81
2022-12-25T07:29:43.794Z,1011.78
2022-12-25T07:30:43.764Z,1011.78
2022-12-25T07:31:43.763Z,1011.79
2022-12-25T07:32:49.845Z,1011.77
2022-12-25T07:33:44.738Z,1011.77
2022-12-25T07:34:43.721Z,1011.79
2022-12-25T07:35:43.677Z,1011.82
2022-12-25T07:36:43.691Z,1011.84
2022-12-25T07:37:43.671Z,1011.88
2022-12-25T07:38:43.693Z,1011.91
2022-12-25T07:39:43.621Z,1011.89
2022-12-25T07:40:43.637Z,1011.91
2022-12-25T07:41:43.606Z,1011.93
2022-12-25T07:42:43.614Z,1011.92
2022-12-25T07:43:43.597Z,1011.98
2022-12-25T07:44:43.724Z,1011.96
2022-12-25T07:45:43.611Z,1011.95
2022-12-25T07:46:51.119Z,1011.93
2022-12-25T07:47:43.610Z,1011.88
2022-12-25T07:48:43.537Z,1011.83
2022-12-25T07:49:43.540Z,1011.79
2022-12-25T07:50:43.471Z,1011.74
2022-12-25T07:51:43.481Z,1011.70
2022-12-25T07:52:43.916Z,1011.69
2022-12-25T07:53:43.453Z,1011.67
2022-12-25T07:54:43.416Z,1011.66
2022-12-25T07:55:43.403Z,1011.61
2022-12-25T07:56:43.427Z,1011.59
2022-12-25T07:57:43.384Z,1011.60
2022-12-25T07:58:43.411Z,1011.64
2022-12-25T07:59:43.391Z,1011.65
2022-12-25T08:00:43.468Z,1011.65
2022-12-25T08:01:43.425Z,1011.57
2022-12-25T08:02:53.436Z,1011.53
2022-12-25T08:03:43.512Z,1011.50
2022-12-25T08:04:43.374Z,1011.54
2022-12-25T08:05:43.562Z,1011.58
2022-12-25T08:06:43.729Z,1011.62
2022-12-25T08:07:43.313Z,1011.57
2022-12-25T08:08:43.274Z,1011.60
2022-12-25T08:09:43.231Z,1011.60
2022-12-25T08:10:43.318Z,1011.51
2022-12-25T08:11:43.205Z,1011.52
2022-12-25T08:12:43.191Z,1011.56
2022-12-25T08:13:43.164Z,1011.65
2022-12-25T08:14:43.165Z,1011.76
2022-12-25T08:15:43.171Z,1011.89
2022-12-25T08:16:43.147Z,1011.91
2022-12-25T08:17:43.094Z,1011.92
2022-12-25T08:18:43.094Z,1011.89
2022-12-25T08:19:43.113Z,1011.86
2022-12-25T08:20:43.065Z,1011.91
2022-12-25T08:21:43.025Z,1011.83
2022-12-25T08:22:43.009Z,1011.81
2022-12-25T08:23:43.039Z,1011.80
2022-12-25T08:24:43.009Z,1011.79
2022-12-25T08:25:43.022Z,1011.80
2022-12-25T08:26:43.025Z,1011.85
2022-12-25T08:27:42.956Z,1011.89
2022-12-25T08:28:43.068Z,1011.91
2022-12-25T08:29:43.056Z,1012.00
2022-12-25T08:30:43.041Z,1012.10
2022-12-25T08:31:46.427Z,1012.09
2022-12-25T08:32:42.919Z,1011.97
2022-12-25T08:33:42.888Z,1011.90
2022-12-25T08:34:42.917Z,1011.85
2022-12-25T08:35:42.864Z,1011.76
2022-12-25T08:36:42.832Z,1011.70
2022-12-25T08:37:42.823Z,1011.66
2022-12-25T08:38:42.883Z,1011.64
2022-12-25T08:39:42.830Z,1011.60
2022-12-25T08:40:42.808Z,1011.64
2022-12-25T08:41:42.830Z,1011.68
2022-12-25T08:42:42.780Z,1011.70
2022-12-25T08:43:42.823Z,1011.82
2022-12-25T08:44:42.730Z,1011.82
2022-12-25T08:45:42.749Z,1011.81
2022-12-25T08:46:42.721Z,1011.83
2022-12-25T08:47:42.700Z,1011.93
2022-12-25T08:48:42.953Z,1012.04
2022-12-25T08:49:42.680Z,1012.07
2022-12-25T08:50:42.617Z,1012.08
2022-12-25T08:51:42.656Z,1012.16
2022-12-25T08:52:42.581Z,1012.29
2022-12-25T08:53:42.585Z,1012.22
2022-12-25T08:54:53.775Z,1012.18
2022-12-25T08:55:42.588Z,1012.13
2022-12-25T08:56:42.676Z,1012.13
2022-12-25T08:57:42.558Z,1012.07
2022-12-25T08:58:42.591Z,1011.98
2022-12-25T08:59:42.485Z,1011.89
2022-12-25T09:00:42.481Z,1011.82
2022-12-25T09:01:42.535Z,1011.81
2022-12-25T09:02:42.530Z,1011.83
2022-12-25T09:03:42.498Z,1011.87
2022-12-25T09:04:42.470Z,1011.88
2022-12-25T09:05:42.383Z,1011.81
2022-12-25T09:06:42.369Z,1011.71
2022-12-25T09:07:42.372Z,1011.70
2022-12-25T09:08:48.132Z,1011.69
2022-12-25T09:09:43.362Z,1011.66
2022-12-25T09:10:42.435Z,1011.67
2022-12-25T09:11:42.367Z,1011.67
2022-12-25T09:12:42.324Z,1011.69
2022-12-25T09:13:42.282Z,1011.71
2022-12-25T09:14:42.288Z,1011.74
2022-12-25T09:15:42.421Z,1011.73
2022-12-25T09:16:42.253Z,1011.74
2022-12-25T09:17:42.266Z,1011.76
2022-12-25T09:18:42.187Z,1011.74
2022-12-25T09:19:42.254Z,1011.79
2022-12-25T09:20:42.275Z,1011.74
2022-12-25T09:21:42.189Z,1011.72
2022-12-25T09:22:42.156Z,1011.66
2022-12-25T09:23:42.151Z,1011.60
2022-12-25T09:24:42.158Z,1011.59
2022-12-25T09:25:42.143Z,1011.65
2022-12-25T09:26:42.118Z,1011.77
2022-12-25T09:27:42.106Z,1011.80
2022-12-25T09:28:48.399Z,1011.82
2022-12-25T09:29:43.088Z,1011.84
2022-12-25T09:30:42.066Z,1011.90
2022-12-25T09:31:42.056Z,1011.96
2022-12-25T09:32:42.067Z,1012.00
2022-12-25T09:33:42.019Z,1012.04
2022-12-25T09:34:42.017Z,1012.05
2022-12-25T09:35:42.069Z,1012.04
2022-12-25T09:36:41.981Z,1012.10
2022-12-25T09:37:41.977Z,1012.09
2022-12-25T09:38:41.932Z,1012.13
2022-12-25T09:39:46.302Z,1012.11
2022-12-25T09:40:41.984Z,1012.05
2022-12-25T09:41:41.948Z,1012.10
2022-12-25T09:42:41.885Z,1012.08
2022-12-25T09:43:41.860Z,1012.08
2022-12-25T09:44:41.845Z,1012.06
2022-12-25T09:45:41.841Z,1012.10
2022-12-25T09:46:41.865Z,1012.17
2022-12-25T09:47:41.837Z,1012.28
2022-12-25T09:48:41.814Z,1012.29
2022-12-25T09:49:41.807Z,1012.36
2022-12-25T09:50:41.973Z,1012.33
2022-12-25T09:51:41.777Z,1012.37
2022-12-25T09:52:50.633Z,1012.35
2022-12-25T09:53:41.770Z,1012.35
2022-12-25T09:54:41.801Z,1012.28
2022-12-25T09:55:41.723Z,1012.29
2022-12-25T09:56:41.756Z,1012.26
2022-12-25T09:57:41.705Z,1012.27
2022-12-25T09:58:41.660Z,1012.24
2022-12-25T09:59:41.641Z,1012.19
2022-12-25T10:00:41.643Z,1012.21
2022-12-25T10:01:41.841Z,1012.11
2022-12-25T10:02:41.800Z,1012.09
2022-12-25T10:03:41.698Z,1012.02
2022-12-25T10:04:41.571Z,1011.98
2022-12-25T10:05:41.614Z,1011.92
2022-12-25T10:06:41.554Z,1011.84
2022-12-25T10:07:41.576Z,1011.73
2022-12-25T10:08:41.514Z,1011.70
2022-12-25T10:09:41.522Z,1011.66
2022-12-25T10:10:41.512Z,1011.70
2022-12-25T10:11:41.477Z,1011.80
2022-12-25T10:12:41.440Z,1011.88
2022-12-25T10:13:41.433Z,1011.89
2022-12-25T10:14:41.465Z,1011.88
2022-12-25T10:15:45.433Z,1011.78
2022-12-25T10:16:41.495Z,1011.77
2022-12-25T10:17:41.392Z,1011.73
2022-12-25T10:18:41.369Z,1011.69
2022-12-25T10:19:41.396Z,1011.66
2022-12-25T10:20:41.382Z,1011.60
2022-12-25T10:21:41.352Z,1011.57
2022-12-25T10:22:41.356Z,1011.49
2022-12-25T10:23:41.292Z,1011.45
2022-12-25T10:24:41.307Z,1011.37
2022-12-25T10:25:41.307Z,1011.31
2022-12-25T10:26:41.293Z,1011.22
2022-12-25T10:27:41.286Z,1011.25
2022-12-25T10:28:41.248Z,1011.28
2022-12-25T10:29:41.256Z,1011.28
2022-12-25T10:30:41.217Z,1011.26
2022-12-25T10:31:41.294Z,1011.21
2022-12-25T10:32:41.181Z,1011.23
2022-12-25T10:33:41.185Z,1011.22
2022-12-25T10:34:41.168Z,1011.28
2022-12-25T10:35:41.142Z,1011.25
2022-12-25T10:36:41.136Z,1011.27
2022-12-25T10:37:41.118Z,1011.27
2022-12-25T10:38:41.124Z,1011.26
2022-12-25T10:39:46.291Z,1011.26
2022-12-25T10:40:42.074Z,1011.30
2022-12-25T10:41:41.067Z,1011.30
2022-12-25T10:42:41.059Z,1011.31
2022-12-25T10:43:41.048Z,1011.36
2022-12-25T10:44:41.020Z,1011.31
2022-12-25T10:45:41.003Z,1011.29
2022-12-25T10:46:41.074Z,1011.30
2022-12-25T10:47:42.136Z,1011.27
2022-12-25T10:48:40.951Z,1011.29
2022-12-25T10:49:41.001Z,1011.32
2022-12-25T10:50:40.940Z,1011.33
2022-12-25T10:51:40.924Z,1011.28
2022-12-25T10:52:40.901Z,1011.19
2022-12-25T10:53:40.889Z,1011.21
2022-12-25T10:54:40.873Z,1011.25
2022-12-25T10:55:40.897Z,1011.20
2022-12-25T10:56:40.830Z,1011.18
2022-12-25T10:57:40.843Z,1011.19
2022-12-25T10:58:41.024Z,1011.18
2022-12-25T10:59:40.810Z,1011.11
2022-12-25T11:00:40.803Z,1011.10
2022-12-25T11:01:40.867Z,1011.02
2022-12-25T11:02:41.231Z,1011.02
2022-12-25T11:03:40.796Z,1010.99
2022-12-25T11:04:40.733Z,1011.02
2022-12-25T11:05:40.745Z,1011.01
2022-12-25T11:06:40.707Z,1011.00
2022-12-25T11:07:40.692Z,1011.02
2022-12-25T11:08:40.695Z,1010.97
2022-12-25T11:09:40.670Z,1010.93
2022-12-25T11:10:40.670Z,1010.93
2022-12-25T11:11:40.681Z,1010.86
2022-12-25T11:12:40.601Z,1010.83
2022-12-25T11:13:40.628Z,1010.80
2022-12-25T11:14:40.612Z,1010.85
2022-12-25T11:15:40.638Z,1010.84
2022-12-25T11:16:40.631Z,1010.89
2022-12-25T11:17:40.589Z,1010.87
2022-12-25T11:18:40.569Z,1010.87
2022-12-25T11:19:40.542Z,1010.83
2022-12-25T11:20:45.388Z,1010.81
2022-12-25T11:21:41.534Z,1010.78
2022-12-25T11:22:40.566Z,1010.74
2022-12-25T11:23:40.476Z,1010.69
2022-12-25T11:24:40.522Z,1010.65
2022-12-25T11:25:40.460Z,1010.65
2022-12-25T11:26:40.487Z,1010.62
2022-12-25T11:27:40.409Z,1010.62
2022-12-25T11:28:40.422Z,1010.60
2022-12-25T11:29:40.416Z,1010.55
2022-12-25T11:30:40.399Z,1010.52
2022-12-25T11:31:40.400Z,1010.48
2022-12-25T11:32:40.343Z,1010.42
2022-12-25T11:33:40.339Z,1010.44
2022-12-25T11:34:40.358Z,1010.38
2022-12-25T11:35:40.307Z,1010.35
2022-12-25T11:36:40.300Z,1010.31
2022-12-25T11:37:40.322Z,1010.29
2022-12-25T11:38:40.242Z,1010.23
2022-12-25T11:39:40.253Z,1010.20
2022-12-25T11:40:40.215Z,1010.13
2022-12-25T11:41:40.230Z,1010.10
2022-12-25T11:42:40.199Z,1010.05
2022-12-25T11:43:40.272Z,1010.04
2022-12-25T11:44:40.164Z,1010.00
2022-12-25T11:45:40.221Z,1009.97
2022-12-25T11:46:40.245Z,1009.94
2022-12-25T11:47:40.156Z,1009.83
2022-12-25T11:48:40.097Z,1009.88
2022-12-25T11:49:40.113Z,1009.84
2022-12-25T11:50:40.096Z,1009.78
2022-12-25T11:51:40.075Z,1009.77
2022-12-25T11:52:40.048Z,1009.74
2022-12-25T11:53:40.081Z,1009.65
2022-12-25T11:54:40.065Z,1009.56
2022-12-25T11:55:40.049Z,1009.49
2022-12-25T11:56:40.060Z,1009.48
2022-12-25T11:57:39.987Z,1009.49
2022-12-25T11:58:39.969Z,1009.48
2022-12-25T11:59:39.988Z,1009.52
2022-12-25T12:00:39.938Z,1009.53
2022-12-25T12:01:40.015Z,1009.58
2022-12-25T12:02:40.273Z,1009.59
2022-12-25T12:03:39.988Z,1009.62
2022-12-25T12:04:43.002Z,1009.60
2022-12-25T12:05:39.873Z,1009.63